Details From EDDH - Hamburg
To EDXW - Westerland Sylt
Flight Number -
Tags decoded
Created
Modified
Stats Distance 101 nm / 188 km
Max Altitude 0 ft / 0 m
Waypoints 3
Social Downloads 7
Likes 0
Share VATSIM

Download

Looking for another format? Having issues loading an existing format? Contact us
Advertisement - Login to hide

Notes

Requested: EDDH LBE EDXW

Route

EDDH LBE EDXW

ID Type Via Altitude Latitude Longitude Leg Dist Tot Dist Heading (true) Name
O EDDH APT - 0 ft / 0 m 53.63367˚ 9.98524˚ - 0 nm - Hamburg
LBE VOR - 0 ft / 0 m 53.65420˚ 9.59506˚ 13 nm 13 nm 275° / 275° ELBE VOR-DME
O EDXW APT - 0 ft / 0 m 54.91243˚ 8.34154˚ 87 nm 101 nm 330° / 329° Westerland Sylt

Altitude Profile

Advertisement - Login to hide

EDDH

Details ICAO EDDH (HAM)
Name Hamburg
Region Germany - Civil
Timezone Europe/Berlin (UTC+2.0)
Stats Elevation 53 ft / 16 m (AMSL)
Location 53.633665° 9.985235°
Runways 2
Magnetic Variation 2.848° E

METAR

EDDH 251320Z 05014KT 010V080 CAVOK 25/09 Q1021 TEMPO 08015G25KT

Decode

TAF

TAF EDDH 251100Z 2512/2618 07014KT CAVOK TEMPO 2512/2517 08015G25KT BECMG 2518/2520 06005KT BECMG 2608/2610 06010KT

Decode

Departure Runways

ID Width Length Bearing (true) Bearing (mag) Surface Threshold Offset Overrun Length
05 151 ft / 46 m 10,647 ft / 3,245 m 50.18° 47.33° Asphalt 978 ft / 298 m 194 ft / 59 m
15 151 ft / 46 m 12,013 ft / 3,662 m 152.89° 150.04° Asphalt 0 ft / 0 m 194 ft / 59 m
23 151 ft / 46 m 10,647 ft / 3,245 m 230.22° 227.37° Asphalt 509 ft / 155 m 240 ft / 73 m
33 151 ft / 46 m 12,013 ft / 3,662 m 332.91° 330.06° Asphalt 1,463 ft / 446 m 164 ft / 50 m

EDXW

Details ICAO EDXW (GWT)
Name Westerland Sylt
Region Germany - Civil
Timezone Europe/Berlin (UTC+2.0)
Stats Elevation 51 ft / 16 m (AMSL)
Location 54.912433° 8.341536°
Runways 2
Magnetic Variation 2.308° E

METAR

EDXW 251320Z 09018KT CAVOK 24/09 Q1023

Decode

TAF

Not found

Destination Runways

ID Width Length Bearing (true) Bearing (mag) Surface Threshold Offset Overrun Length
06 148 ft / 45 m 5,551 ft / 1,692 m 59.58° 57.27° Asphalt 0 ft / 0 m 0 ft / 0 m
14 148 ft / 45 m 6,944 ft / 2,117 m 144.52° 142.21° Asphalt 0 ft / 0 m 105 ft / 32 m
24 148 ft / 45 m 5,551 ft / 1,692 m 239.60° 237.29° Asphalt 0 ft / 0 m 0 ft / 0 m
32 148 ft / 45 m 6,944 ft / 2,117 m 324.53° 322.22° Asphalt 0 ft / 0 m 105 ft / 32 m

Approach Navaids

Runway Type Ident Frequency Range Bearing (true) Bearing (mag) Slope Elevation
32 Localiser IWES 111.50 MHz 18 nm / 33 km 324.52° 322.21° - 32 ft / 10 m (AMSL)
32 Glidescope IWES 111.50 MHz 10 nm / 19 km 324.53° 322.22° 3.00° 32 ft / 10 m (AMSL)
32 DME IWES 111.50 MHz 18 nm / 33 km - - - 49 ft / 15 m (AMSL)

Popular Alternatives